JDI weather

Udelva Airport
Jamundi, Valle del Cauca Department, Colombia

Public forecast

Using degrees Celsius for public forecast. Weather courtesy of forecast.io.

METAR (pilot weather report)

Closest report is Alfonso Bonilla Aragon International Airport, 20.0 nm (37.0 km) NNE. Retrieved 2019/08/25 03:00 UTC (35 minutes ago):

SKCL 250300Z 03005KT 9999 FEW023 22/18 A3002 NOSIG

TAF (pilot weather forecast)

Forecast is more than 12 hours old.

Closest forecast is Alfonso Bonilla Aragon International Airport, 20.0 nm (37.0 km) NNE. Retrieved 2019/08/24 00:49 UTC (1 day ago):

TAF SKCL 242230Z 2500/2524 05004KT FEW020 BKN120 TEMPO 2502/2505 DZRA SCT017CB BECMG 2519/2521 32012KT TX33/2519Z TN18/2511Z